Time;durP1;ratioP1;P1;durP2;ratioP2;P2;SDS_P1;SDS_P2;PMS_P1;PMS_P2;Temp;Humidity;BMP_temperature;BMP_pressure;BME280_temperature;BME280_humidity;BME280_pressure;Samples;Min_cycle;Max_cycle;Signal;HPM_P1;HPM_P2
2023/06/10 00:04:48;;;;;;;4.53;3.47;;;;;;;22.93;37.85;101233.72;16113454;19;130412;-45
2023/06/10 00:10:11;;;;;;;7.22;3.42;;;;;;;22.93;37.94;101245.69;16111143;19;130797;-43
2023/06/10 00:15:35;;;;;;;7.20;4.32;;;;;;;22.95;37.89;101248.22;16112196;19;131700;-41
2023/06/10 00:21:02;;;;;;;7.43;3.40;;;;;;;22.92;37.82;101237.59;16109581;19;129136;-43
2023/06/10 00:26:25;;;;;;;4.88;3.33;;;;;;;22.93;37.63;101242.06;16109940;19;130730;-41
2023/06/10 00:31:47;;;;;;;6.00;3.65;;;;;;;22.91;38.16;101235.91;16110098;19;130872;-42
2023/06/10 00:37:09;;;;;;;6.72;3.95;;;;;;;22.91;37.77;101233.97;16112530;19;129563;-42
2023/06/10 00:42:31;;;;;;;4.95;3.72;;;;;;;22.92;37.67;101237.59;16116381;19;129254;-42
2023/06/10 00:47:53;;;;;;;4.32;3.42;;;;;;;22.91;38.04;101235.91;16110345;19;130735;-43
2023/06/10 00:53:16;;;;;;;4.70;3.65;;;;;;;22.90;37.55;101240.63;16111382;19;129531;-43
2023/06/10 00:58:38;;;;;;;5.55;3.92;;;;;;;22.89;37.71;101241.75;16128359;19;131123;-42
2023/06/10 01:04:00;;;;;;;4.47;3.60;;;;;;;22.89;38.19;101238.97;16127341;19;129449;-41
2023/06/10 01:09:37;;;;;;;5.72;3.83;;;;;;;22.89;37.70;101236.16;16127341;19;131631;-47
2023/06/10 01:15:01;;;;;;;3.92;3.38;;;;;;;22.88;37.73;101228.91;16120690;19;130613;-43
2023/06/10 01:20:24;;;;;;;4.32;3.63;;;;;;;22.88;37.98;101240.06;16127193;19;130437;-47
2023/06/10 01:25:52;;;;;;;5.00;3.80;;;;;;;22.86;38.12;101234.72;16124963;19;129680;-45
2023/06/10 01:31:22;;;;;;;4.30;3.78;;;;;;;22.86;38.03;101222.75;16122994;19;130655;-46
2023/06/10 01:36:49;;;;;;;4.43;3.80;;;;;;;22.87;37.91;101232.81;16124907;19;130199;-42
2023/06/10 01:42:11;;;;;;;4.43;4.03;;;;;;;22.85;38.01;101229.44;16125302;19;129655;-44
2023/06/10 01:47:34;;;;;;;5.15;3.78;;;;;;;22.84;37.95;101228.56;16123591;19;129897;-44
2023/06/10 01:52:58;;;;;;;5.63;4.10;;;;;;;22.84;38.35;101222.16;16123396;19;130433;-42
2023/06/10 01:58:19;;;;;;;4.20;3.80;;;;;;;22.85;38.08;101226.63;16122124;19;129025;-47
2023/06/10 02:03:41;;;;;;;4.40;3.85;;;;;;;22.83;37.99;101234.44;16122892;19;129676;-44
2023/06/10 02:09:03;;;;;;;4.72;3.90;;;;;;;22.84;37.75;101233.31;16123168;19;129760;-45
2023/06/10 02:14:25;;;;;;;4.43;3.60;;;;;;;22.82;38.03;101225.25;16115984;19;129467;-46
2023/06/10 02:19:52;;;;;;;8.32;4.07;;;;;;;22.82;38.01;101235.53;16119469;19;129765;-43
2023/06/10 02:25:14;;;;;;;4.72;3.85;;;;;;;22.83;38.08;101231.66;16121516;19;129431;-44
2023/06/10 02:30:41;;;;;;;5.85;4.30;;;;;;;22.82;37.98;101241.13;16119071;19;129153;-43
2023/06/10 02:36:03;;;;;;;5.05;3.90;;;;;;;22.81;38.39;101231.91;16120633;19;129362;-42
2023/06/10 02:41:26;;;;;;;4.18;3.78;;;;;;;22.80;37.84;101238.59;16114510;19;131450;-43
2023/06/10 02:46:48;;;;;;;6.88;4.47;;;;;;;22.80;37.96;101240.53;16122612;19;131415;-45
2023/06/10 02:52:11;;;;;;;7.40;4.15;;;;;;;22.80;38.44;101243.31;16117482;19;129732;-46
2023/06/10 02:57:33;;;;;;;5.80;4.20;;;;;;;22.79;38.19;101250.00;16120003;19;133601;-42
2023/06/10 03:02:57;;;;;;;7.15;4.70;;;;;;;22.79;38.18;101250.00;16116428;19;129838;-44
2023/06/10 03:08:19;;;;;;;5.93;4.47;;;;;;;22.79;38.02;101252.81;16115448;19;130366;-47
2023/06/10 03:13:41;;;;;;;5.15;4.03;;;;;;;22.78;38.04;101253.91;16116458;19;130163;-42
2023/06/10 03:19:03;;;;;;;7.45;4.22;;;;;;;22.77;38.34;101260.63;16113854;19;129470;-46
2023/06/10 03:24:25;;;;;;;5.30;4.80;;;;;;;22.77;38.34;101266.19;16114175;19;131678;-44
2023/06/10 03:29:47;;;;;;;4.72;4.25;;;;;;;22.77;38.34;101271.78;16117944;19;129505;-44
2023/06/10 03:35:09;;;;;;;6.97;4.80;;;;;;;22.75;38.31;101272.03;16116848;19;130651;-45
2023/06/10 03:40:32;;;;;;;6.38;4.65;;;;;;;22.76;37.99;101275.66;16113455;19;131498;-42
2023/06/10 03:45:54;;;;;;;7.13;4.72;;;;;;;22.74;38.25;101274.00;16112142;19;131080;-46
2023/06/10 03:51:16;;;;;;;8.20;4.88;;;;;;;22.73;38.27;101280.66;16113267;19;129664;-41
2023/06/10 03:56:39;;;;;;;5.20;4.63;;;;;;;22.73;38.26;101277.88;16114117;19;130110;-41
2023/06/10 04:02:01;;;;;;;4.53;4.13;;;;;;;22.73;38.29;101283.47;16114339;19;129620;-44
2023/06/10 04:07:23;;;;;;;4.55;4.07;;;;;;;22.72;38.05;101280.91;16114177;19;129768;-41
2023/06/10 04:12:45;;;;;;;5.72;4.63;;;;;;;22.71;38.41;101277.31;16113383;19;129550;-43
2023/06/10 04:18:07;;;;;;;6.65;4.32;;;;;;;22.71;38.39;101282.03;16112718;19;130570;-45
2023/06/10 04:23:29;;;;;;;8.82;4.82;;;;;;;22.71;38.34;101282.88;16113647;19;131586;-43
2023/06/10 04:28:51;;;;;;;6.88;4.70;;;;;;;22.71;38.50;101295.97;16113028;19;132242;-43
2023/06/10 04:34:13;;;;;;;6.35;4.88;;;;;;;22.70;38.19;101297.94;16113246;19;135836;-41
2023/06/10 04:39:35;;;;;;;6.85;4.13;;;;;;;22.70;38.06;101297.94;16112032;19;130169;-42
2023/06/10 04:44:59;;;;;;;4.83;4.43;;;;;;;22.69;38.17;101304.63;16110738;19;129544;-41
2023/06/10 04:50:21;;;;;;;6.28;5.43;;;;;;;22.70;38.61;101308.25;16111277;19;129871;-43
2023/06/10 04:55:43;;;;;;;5.18;4.63;;;;;;;22.69;38.51;101307.41;16108617;19;129556;-44
2023/06/10 05:01:05;;;;;;;6.53;5.22;;;;;;;22.69;38.40;101309.34;16106694;19;129219;-44
2023/06/10 05:06:27;;;;;;;5.40;4.90;;;;;;;22.70;38.36;101311.03;16111908;19;129546;-42
2023/06/10 05:11:49;;;;;;;6.00;4.90;;;;;;;22.69;38.54;101309.34;16111596;19;130419;-41
2023/06/10 05:17:12;;;;;;;7.20;4.80;;;;;;;22.68;38.77;101308.50;16110693;19;129407;-42
2023/06/10 05:22:35;;;;;;;7.25;5.20;;;;;;;22.69;38.58;101310.19;16110246;19;129429;-46
2023/06/10 05:27:57;;;;;;;5.65;4.75;;;;;;;22.68;38.54;101310.47;16108898;19;129469;-43
2023/06/10 05:33:19;;;;;;;9.30;4.45;;;;;;;22.68;38.44;101313.25;16105233;19;129408;-43
2023/06/10 05:38:41;;;;;;;5.32;4.80;;;;;;;22.67;38.25;101312.41;16111000;19;130499;-42
2023/06/10 05:44:04;;;;;;;4.68;4.28;;;;;;;22.67;38.48;101315.19;16121345;19;129174;-46
2023/06/10 05:49:26;;;;;;;4.80;4.32;;;;;;;22.68;38.61;101319.66;16124626;19;129472;-43
2023/06/10 05:54:49;;;;;;;6.00;4.82;;;;;;;22.68;38.61;101321.63;16124222;19;129334;-41
2023/06/10 06:00:12;;;;;;;4.70;4.30;;;;;;;22.68;38.89;101318.84;16122629;19;129629;-41
2023/06/10 06:05:35;;;;;;;4.88;4.38;;;;;;;22.68;38.56;101318.84;16120029;19;130124;-42
2023/06/10 06:10:57;;;;;;;6.07;4.72;;;;;;;22.68;38.96;101318.84;16120034;19;131492;-41
2023/06/10 06:16:19;;;;;;;5.00;4.50;;;;;;;22.68;38.56;101311.28;16120396;19;129690;-44
2023/06/10 06:21:41;;;;;;;5.43;4.43;;;;;;;22.68;38.69;101319.66;16118644;19;129365;-46
2023/06/10 06:27:03;;;;;;;6.32;4.32;;;;;;;22.69;38.70;101310.19;16120478;19;129452;-46
2023/06/10 06:32:27;;;;;;;7.57;4.28;;;;;;;22.69;38.70;101321.34;16118831;19;129356;-42
2023/06/10 06:37:49;;;;;;;6.25;4.45;;;;;;;22.69;38.58;101315.75;16120740;19;130398;-42
2023/06/10 06:43:11;;;;;;;6.70;4.50;;;;;;;22.68;38.65;101319.66;16118399;19;130500;-44
2023/06/10 06:48:33;;;;;;;5.22;4.63;;;;;;;22.69;38.70;101332.50;16118820;19;129618;-44
2023/06/10 06:53:58;;;;;;;5.03;4.53;;;;;;;22.70;39.15;101334.19;16113143;19;129569;-43
2023/06/10 06:59:20;;;;;;;5.43;4.18;;;;;;;22.70;39.02;101339.75;16114708;19;129980;-43
2023/06/10 07:04:42;;;;;;;6.05;4.30;;;;;;;22.71;38.89;101338.66;16113747;19;131522;-46
2023/06/10 07:10:05;;;;;;;9.90;5.03;;;;;;;22.73;38.88;101333.66;16116098;19;129523;-42
2023/06/10 07:15:27;;;;;;;5.43;4.85;;;;;;;22.73;39.41;101338.38;16116673;19;130109;-47
2023/06/10 07:20:49;;;;;;;5.43;4.40;;;;;;;22.74;39.02;101348.44;16120928;19;129373;-46
2023/06/10 07:26:13;;;;;;;6.30;5.00;;;;;;;22.75;38.95;101350.13;16110051;19;130822;-45
2023/06/10 07:31:35;;;;;;;6.40;4.80;;;;;;;22.74;38.98;101349.28;16118601;19;129778;-44
2023/06/10 07:36:57;;;;;;;8.32;4.43;;;;;;;22.76;39.42;101365.75;16116036;19;131003;-41
2023/06/10 07:42:18;;;;;;;8.45;5.70;;;;;;;22.80;39.48;101360.47;16114008;19;131035;-43
2023/06/10 07:47:40;;;;;;;7.20;4.88;;;;;;;22.83;39.71;101357.16;16115997;19;130273;-45
2023/06/10 07:53:03;;;;;;;10.40;5.40;;;;;;;22.86;39.86;101356.66;16114050;19;131135;-44
2023/06/10 07:58:25;;;;;;;11.40;5.53;;;;;;;22.89;40.14;101358.91;16114613;19;130547;-41
2023/06/10 08:03:46;;;;;;;7.88;5.10;;;;;;;22.92;39.83;101352.81;16112639;19;130093;-43
2023/06/10 08:09:08;;;;;;;6.78;4.78;;;;;;;22.95;39.70;101348.69;16111187;19;130668;-46
2023/06/10 08:14:30;;;;;;;9.27;5.20;;;;;;;22.98;40.12;101356.50;16114494;19;131003;-43
2023/06/10 08:19:52;;;;;;;6.55;4.60;;;;;;;22.97;40.44;101347.28;16114685;19;130683;-42
2023/06/10 08:25:14;;;;;;;5.90;4.78;;;;;;;23.00;40.19;101351.50;16113917;19;130051;-42
2023/06/10 08:30:36;;;;;;;9.40;5.05;;;;;;;23.00;40.43;101360.72;16113691;19;129656;-41
2023/06/10 08:35:58;;;;;;;6.40;4.60;;;;;;;23.02;40.15;101357.66;16110524;19;130152;-44
2023/06/10 08:41:23;;;;;;;7.90;4.55;;;;;;;23.03;40.16;101353.75;16110884;19;129870;-43
2023/06/10 08:46:45;;;;;;;6.65;4.80;;;;;;;23.05;40.13;101346.78;16111448;19;130447;-45
2023/06/10 08:52:11;;;;;;;8.82;4.75;;;;;;;23.07;40.05;101352.13;16110471;19;129043;-42
2023/06/10 08:57:33;;;;;;;;;;;;;;;23.02;40.10;101355.69;16110177;19;131015;-43
2023/06/10 09:02:59;;;;;;;9.98;4.78;;;;;;;23.03;40.47;101354.59;16112218;19;129273;-41
2023/06/10 09:08:25;;;;;;;10.27;5.30;;;;;;;23.01;40.17;101350.38;16111136;19;129362;-42
2023/06/10 09:13:47;;;;;;;9.05;5.00;;;;;;;22.99;40.18;101347.88;16111333;19;129273;-42
2023/06/10 09:19:11;;;;;;;8.25;5.38;;;;;;;23.00;39.89;101351.50;16127909;19;130545;-42
2023/06/10 09:24:33;;;;;;;9.95;4.78;;;;;;;23.00;39.97;101348.69;16128220;19;133574;-45
2023/06/10 09:29:55;;;;;;;6.40;4.53;;;;;;;22.98;39.88;101346.19;16124633;19;129316;-41
2023/06/10 09:35:17;;;;;;;6.78;4.30;;;;;;;22.99;40.24;101347.88;16121738;19;130162;-43
2023/06/10 09:40:53;;;;;;;8.05;4.93;;;;;;;23.00;39.88;101341.19;16122855;19;129390;-43
2023/06/10 09:46:16;;;;;;;7.55;4.57;;;;;;;22.99;39.64;101349.81;16121692;19;130058;-43
2023/06/10 09:51:49;;;;;;;9.60;4.65;;;;;;;23.00;39.88;101343.97;16121235;19;131147;-46
2023/06/10 09:57:12;;;;;;;7.90;5.25;;;;;;;22.99;40.19;101336.72;16121307;19;129377;-47
2023/06/10 10:02:44;;;;;;;13.27;4.88;;;;;;;23.01;39.74;101334.50;16126781;19;131600;-46
2023/06/10 10:08:06;;;;;;;8.82;4.25;;;;;;;23.00;39.57;101332.81;16120959;19;129581;-42
2023/06/10 10:13:32;;;;;;;9.07;4.90;;;;;;;23.00;39.84;101330.03;16122134;19;134063;-44
2023/06/10 10:19:04;;;;;;;5.60;4.65;;;;;;;23.02;39.74;101325.00;16120253;19;129981;-46
2023/06/10 10:24:33;;;;;;;7.72;4.60;;;;;;;23.01;39.87;101326.13;16118140;19;132004;-42
2023/06/10 10:29:58;;;;;;;8.05;4.78;;;;;;;23.02;39.59;101327.78;16120024;19;129746;-49
2023/06/10 10:35:24;;;;;;;7.60;5.35;;;;;;;23.02;39.55;101319.41;16118701;19;129070;-48
2023/06/10 10:40:47;;;;;;;5.65;4.53;;;;;;;23.03;39.42;101325.84;16119089;19;130994;-46
2023/06/10 10:46:13;;;;;;;5.88;4.75;;;;;;;23.04;39.39;101322.78;16118280;19;130761;-49
2023/06/10 10:51:36;;;;;;;6.40;4.93;;;;;;;23.03;39.29;101315.50;16119025;19;129188;-50
2023/06/10 10:57:11;;;;;;;6.55;4.80;;;;;;;23.07;39.37;101315.00;16117497;19;131752;-48
2023/06/10 11:02:43;;;;;;;10.68;5.35;;;;;;;23.05;39.37;101316.09;16120150;19;133324;-44
2023/06/10 11:08:08;;;;;;;6.28;4.93;;;;;;;23.07;39.10;101309.41;16119544;19;129495;-46
2023/06/10 11:13:30;;;;;;;6.10;5.50;;;;;;;23.07;38.60;101309.41;16117772;19;130729;-43
2023/06/10 11:18:54;;;;;;;7.95;5.13;;;;;;;23.08;38.92;101305.50;16121655;19;129568;-47
2023/06/10 11:24:16;;;;;;;7.23;4.63;;;;;;;23.08;38.75;101299.94;16118385;19;129691;-48
2023/06/10 11:29:38;;;;;;;10.20;4.82;;;;;;;23.09;38.20;101302.44;16117476;19;129029;-44
2023/06/10 11:35:03;;;;;;;7.65;5.20;;;;;;;23.11;38.37;101288.25;16119645;19;129389;-44
2023/06/10 11:40:26;;;;;;;11.88;5.55;;;;;;;23.11;38.13;101293.81;16113749;19;129035;-43
2023/06/10 11:45:55;;;;;;;10.13;5.18;;;;;;;23.15;37.99;101284.63;16112158;19;130568;-42
2023/06/10 11:51:17;;;;;;;13.73;5.47;;;;;;;23.20;38.39;101281.03;16115824;19;130974;-43
2023/06/10 11:56:38;;;;;;;7.10;5.65;;;;;;;23.23;38.21;101280.50;16115473;19;129703;-46
2023/06/10 12:02:00;;;;;;;17.05;5.57;;;;;;;23.28;38.33;101276.91;16114620;19;130287;-42
2023/06/10 12:07:22;;;;;;;10.55;4.65;;;;;;;23.34;38.04;101275.81;16112722;19;129691;-47
2023/06/10 12:12:45;;;;;;;9.55;5.85;;;;;;;23.37;38.00;101272.47;16117293;19;129358;-46
2023/06/10 12:18:07;;;;;;;7.60;5.60;;;;;;;23.38;37.92;101271.38;16110496;19;129652;-45
2023/06/10 12:23:29;;;;;;;10.20;5.40;;;;;;;23.43;37.52;101273.34;16112460;19;130759;-46
2023/06/10 12:28:51;;;;;;;10.10;5.38;;;;;;;23.46;37.63;101267.22;16113414;19;129448;-48
2023/06/10 12:34:13;;;;;;;8.15;5.00;;;;;;;23.48;37.46;101270.59;16114193;19;135133;-44
2023/06/10 12:39:35;;;;;;;14.40;5.30;;;;;;;23.47;37.19;101257.75;16111458;19;129968;-41
2023/06/10 12:45:00;;;;;;;13.63;5.28;;;;;;;23.57;36.13;101251.38;16112658;19;130699;-43
2023/06/10 12:50:22;;;;;;;12.68;5.60;;;;;;;23.66;35.74;101260.94;16117190;19;129727;-44
2023/06/10 12:55:45;;;;;;;8.52;5.75;;;;;;;23.73;35.03;101263.47;16129994;19;130213;-44
2023/06/10 13:01:07;;;;;;;9.00;5.68;;;;;;;23.81;34.88;101251.78;16126114;19;130081;-46
2023/06/10 13:06:29;;;;;;;11.77;5.85;;;;;;;23.86;34.73;101249.00;16126306;19;129806;-47
2023/06/10 13:11:52;;;;;;;10.18;5.57;;;;;;;23.90;34.25;101244.53;16129251;19;130912;-41
2023/06/10 13:17:14;;;;;;;12.00;5.95;;;;;;;23.93;33.79;101243.97;16124468;19;129428;-47
2023/06/10 13:22:36;;;;;;;11.75;6.07;;;;;;;23.96;33.53;101237.00;16125101;19;130379;-42
2023/06/10 13:27:58;;;;;;;11.77;5.10;;;;;;;24.00;33.74;101231.72;16125786;19;129031;-45
2023/06/10 13:33:21;;;;;;;8.18;6.10;;;;;;;24.02;34.01;101226.66;16124388;19;129495;-48
2023/06/10 13:38:43;;;;;;;8.20;5.47;;;;;;;24.03;33.94;101219.97;16120048;19;130021;-42
2023/06/10 13:44:06;;;;;;;13.57;6.15;;;;;;;24.02;33.87;101215.50;16109613;19;129698;-44
2023/06/10 13:49:28;;;;;;;17.42;5.90;;;;;;;24.02;33.85;101218.28;16107965;19;130380;-43
2023/06/10 13:54:50;;;;;;;12.57;6.05;;;;;;;24.00;34.01;101212.16;16118871;19;129712;-42
2023/06/10 14:00:12;;;;;;;7.57;5.53;;;;;;;23.95;34.41;101210.16;16120638;19;129761;-46
2023/06/10 14:05:34;;;;;;;6.15;5.40;;;;;;;23.88;34.17;101207.63;16121331;19;129830;-45
2023/06/10 14:10:56;;;;;;;8.10;5.50;;;;;;;23.85;34.30;101210.16;16118654;19;130338;-46
2023/06/10 14:16:18;;;;;;;7.15;5.00;;;;;;;23.84;34.57;101216.84;16118940;19;130970;-45
2023/06/10 14:21:40;;;;;;;7.72;5.15;;;;;;;23.80;34.73;101200.66;16117702;19;130343;-44
2023/06/10 14:27:02;;;;;;;9.25;5.88;;;;;;;23.78;35.04;101208.47;16119229;19;130465;-42
2023/06/10 14:32:25;;;;;;;8.15;5.18;;;;;;;23.76;34.63;101210.69;16116346;19;131001;-44
2023/06/10 14:37:47;;;;;;;8.52;5.47;;;;;;;23.77;34.62;101211.50;16116936;19;129520;-45
2023/06/10 14:43:09;;;;;;;8.82;5.72;;;;;;;23.76;34.31;101209.84;16115542;19;130341;-42
2023/06/10 14:48:31;;;;;;;7.13;5.38;;;;;;;23.74;34.57;101201.75;16110786;19;130925;-47
2023/06/10 14:53:53;;;;;;;7.13;5.25;;;;;;;23.75;34.36;101194.22;16111934;19;134615;-46
2023/06/10 14:59:15;;;;;;;7.80;5.60;;;;;;;23.74;34.45;101195.31;16119712;19;129651;-44
2023/06/10 15:04:37;;;;;;;7.45;5.18;;;;;;;23.73;34.32;101196.44;16117007;19;131228;-47
2023/06/10 15:09:59;;;;;;;7.45;4.97;;;;;;;23.73;34.57;101196.44;16114210;19;129553;-44
2023/06/10 15:15:23;;;;;;;7.63;4.90;;;;;;;23.73;34.52;101182.47;16110514;19;131724;-48
2023/06/10 15:20:45;;;;;;;7.50;5.50;;;;;;;23.74;34.58;101192.53;16112896;19;129927;-49
2023/06/10 15:26:06;;;;;;;5.78;5.00;;;;;;;23.74;33.95;101178.56;16111857;19;130567;-45
2023/06/10 15:31:30;;;;;;;7.55;5.22;;;;;;;23.74;34.29;101176.59;16112914;19;130171;-43
2023/06/10 15:36:52;;;;;;;6.15;4.80;;;;;;;23.76;34.61;101181.91;16115088;19;130211;-47
2023/06/10 15:42:14;;;;;;;6.55;4.60;;;;;;;23.74;34.67;101179.41;16116723;19;129681;-44
2023/06/10 15:47:36;;;;;;;6.82;4.93;;;;;;;23.76;34.58;101179.09;16111111;19;129570;-45
2023/06/10 15:52:58;;;;;;;5.32;4.82;;;;;;;23.76;34.80;101177.16;16113696;19;130646;-44
2023/06/10 15:58:20;;;;;;;8.18;5.07;;;;;;;23.78;34.38;101171.28;16112159;19;130358;-44
2023/06/10 16:03:41;;;;;;;6.03;4.70;;;;;;;23.79;34.26;101172.97;16112876;19;130925;-47
2023/06/10 16:09:04;;;;;;;8.38;4.88;;;;;;;23.80;33.95;101171.88;16114414;19;132110;-46
2023/06/10 16:14:25;;;;;;;4.82;4.30;;;;;;;23.81;34.28;101165.16;16112855;19;130971;-43
2023/06/10 16:19:47;;;;;;;6.18;4.80;;;;;;;23.81;34.01;101163.22;16114369;19;130389;-45
2023/06/10 16:25:09;;;;;;;7.53;4.60;;;;;;;23.85;34.37;101162.66;16113844;19;130636;-45
2023/06/10 16:30:32;;;;;;;5.25;4.30;;;;;;;23.85;34.12;101146.75;16112222;19;130722;-44
2023/06/10 16:35:54;;;;;;;6.30;4.35;;;;;;;23.86;34.56;101165.19;16113236;19;130986;-47
2023/06/10 16:41:16;;;;;;;6.68;4.40;;;;;;;23.87;34.43;101161.28;16111918;19;130380;-42
2023/06/10 16:46:38;;;;;;;6.30;4.88;;;;;;;23.88;34.29;101157.34;16112363;19;129673;-47
2023/06/10 16:52:04;;;;;;;6.32;4.35;;;;;;;23.90;34.48;101154.28;16111671;19;129127;-43
2023/06/10 16:57:26;;;;;;;6.53;4.30;;;;;;;23.91;34.21;101161.56;16107738;19;130513;-49
2023/06/10 17:02:48;;;;;;;7.72;4.72;;;;;;;23.91;34.01;101162.38;16104614;19;135454;-44
2023/06/10 17:08:10;;;;;;;4.70;4.25;;;;;;;23.93;34.42;101165.75;16102257;19;130787;-45
2023/06/10 17:13:32;;;;;;;6.13;4.18;;;;;;;23.95;34.38;101160.72;16106343;19;131163;-48
2023/06/10 17:18:54;;;;;;;6.55;4.68;;;;;;;23.96;34.66;101165.19;16108580;19;129792;-45
2023/06/10 17:24:17;;;;;;;5.97;4.30;;;;;;;23.98;34.49;101167.69;16107428;19;130021;-44
2023/06/10 17:29:39;;;;;;;5.47;4.35;;;;;;;24.00;34.48;101159.06;16103434;19;129933;-44
2023/06/10 17:35:01;;;;;;;5.68;4.10;;;;;;;24.01;34.32;101161.56;16104120;19;130840;-42
2023/06/10 17:40:23;;;;;;;6.30;4.40;;;;;;;24.04;34.45;101168.53;16116808;19;130933;-42
2023/06/10 17:45:45;;;;;;;6.70;4.53;;;;;;;24.05;34.65;101173.88;16122692;19;129482;-45
2023/06/10 17:51:06;;;;;;;6.30;4.45;;;;;;;24.07;34.57;101182.81;16121252;19;130973;-43
2023/06/10 17:56:28;;;;;;;6.22;4.30;;;;;;;24.09;34.76;101179.75;16122786;19;130799;-44
2023/06/10 18:01:50;;;;;;;4.70;4.28;;;;;;;24.10;34.65;101190.63;16120255;19;131487;-42
2023/06/10 18:07:12;;;;;;;7.65;4.13;;;;;;;24.12;34.66;101195.97;16122444;19;129713;-44
2023/06/10 18:12:34;;;;;;;5.68;4.22;;;;;;;24.14;34.95;101198.47;16121438;19;130532;-46
2023/06/10 18:17:56;;;;;;;5.57;4.55;;;;;;;24.12;34.82;101195.97;16121397;19;129561;-47
2023/06/10 18:23:18;;;;;;;5.03;4.50;;;;;;;24.11;34.82;101199.88;16113449;19;130119;-43
2023/06/10 18:28:40;;;;;;;6.70;4.95;;;;;;;24.09;34.80;101202.94;16115092;19;131543;-42
2023/06/10 18:34:03;;;;;;;9.27;5.20;;;;;;;24.07;34.91;101204.34;16114348;19;130162;-42
2023/06/10 18:39:25;;;;;;;5.22;4.50;;;;;;;24.06;34.95;101208.25;16117552;19;129534;-45
2023/06/10 18:44:47;;;;;;;5.30;4.63;;;;;;;24.04;35.05;101204.88;16110874;19;129744;-47
2023/06/10 18:50:09;;;;;;;5.45;4.50;;;;;;;24.03;34.97;101214.38;16112014;19;130067;-44
2023/06/10 18:55:35;;;;;;;7.05;5.00;;;;;;;24.01;34.94;101216.59;16115655;19;131707;-44
2023/06/10 19:00:58;;;;;;;6.28;5.63;;;;;;;23.99;35.00;101224.44;16113595;19;131418;-44
2023/06/10 19:06:19;;;;;;;6.20;4.70;;;;;;;23.97;35.02;101228.34;16105721;19;131248;-45
2023/06/10 19:11:41;;;;;;;5.40;4.70;;;;;;;23.95;35.35;101238.97;16111744;19;132106;-44
2023/06/10 19:17:03;;;;;;;6.38;4.40;;;;;;;23.95;35.39;101238.97;16115131;19;129612;-43
2023/06/10 19:22:25;;;;;;;5.38;4.65;;;;;;;23.93;35.15;101241.19;16114008;19;130946;-43
2023/06/10 19:27:47;;;;;;;5.15;4.53;;;;;;;23.93;35.43;101254.34;16107685;19;132220;-45
2023/06/10 19:33:10;;;;;;;4.65;4.25;;;;;;;23.92;35.57;101253.47;16110503;19;130218;-45
2023/06/10 19:38:33;;;;;;;4.95;4.45;;;;;;;23.90;35.54;101254.88;16107984;19;132355;-43
2023/06/10 19:43:55;;;;;;;5.63;4.78;;;;;;;23.88;35.50;101263.50;16107389;19;132591;-42
2023/06/10 19:49:16;;;;;;;4.68;4.20;;;;;;;23.88;35.64;101263.50;16109345;19;130434;-43
2023/06/10 19:54:38;;;;;;;4.93;4.43;;;;;;;23.86;35.70;101268.56;16113555;19;130096;-44
2023/06/10 20:00:00;;;;;;;5.88;4.43;;;;;;;23.85;35.96;101269.69;16106622;19;131151;-44
2023/06/10 20:05:23;;;;;;;5.20;4.70;;;;;;;23.85;35.67;101280.84;16108602;19;130736;-43
2023/06/10 20:10:45;;;;;;;5.55;4.32;;;;;;;23.84;36.04;101290.34;16107218;19;132166;-44
2023/06/10 20:16:07;;;;;;;5.82;4.55;;;;;;;23.83;35.79;101288.66;16108655;19;129918;-42
2023/06/10 20:21:29;;;;;;;5.55;4.65;;;;;;;23.82;35.80;101287.81;16103159;19;131377;-42
2023/06/10 20:26:51;;;;;;;5.45;4.88;;;;;;;23.83;35.80;101297.03;16100599;19;130747;-45
2023/06/10 20:32:13;;;;;;;5.93;4.63;;;;;;;23.82;35.74;101304.56;16100188;19;130804;-45
2023/06/10 20:37:35;;;;;;;5.35;4.20;;;;;;;23.80;35.88;101304.03;16101244;19;129603;-45
2023/06/10 20:42:57;;;;;;;5.68;4.80;;;;;;;23.80;36.03;101311.56;16108711;19;130090;-45
2023/06/10 20:48:19;;;;;;;5.47;4.90;;;;;;;23.81;35.81;101313.22;16108758;19;130317;-44
2023/06/10 20:53:41;;;;;;;6.40;4.32;;;;;;;23.80;35.68;101311.56;16099905;19;129471;-46
2023/06/10 20:59:03;;;;;;;9.07;4.75;;;;;;;23.79;35.56;101315.44;16100896;19;130964;-42
2023/06/10 21:04:25;;;;;;;6.22;5.05;;;;;;;23.80;35.88;101311.56;16105300;19;130978;-44
2023/06/10 21:09:47;;;;;;;6.38;4.80;;;;;;;23.79;36.08;101319.09;16106918;19;131121;-45
2023/06/10 21:15:09;;;;;;;7.60;5.25;;;;;;;23.79;36.29;101326.63;16123836;19;129688;-45
2023/06/10 21:20:31;;;;;;;6.45;5.35;;;;;;;23.80;36.53;101328.31;16125356;19;129637;-42
2023/06/10 21:25:53;;;;;;;8.45;5.13;;;;;;;23.82;36.33;101326.91;16122601;19;131197;-45
2023/06/10 21:31:15;;;;;;;8.48;5.80;;;;;;;23.80;36.38;101336.69;16107282;19;129549;-45
2023/06/10 21:36:37;;;;;;;6.75;5.07;;;;;;;23.79;36.39;101335.88;16110090;19;129769;-44
2023/06/10 21:41:59;;;;;;;9.98;5.57;;;;;;;23.77;36.43;101338.09;16114844;19;130152;-45
2023/06/10 21:47:21;;;;;;;9.43;5.32;;;;;;;23.77;36.13;101334.44;16114304;19;129847;-42
2023/06/10 21:52:43;;;;;;;6.68;5.25;;;;;;;23.75;36.32;101331.94;16118775;19;129598;-44
2023/06/10 21:58:05;;;;;;;8.10;5.30;;;;;;;23.74;36.70;101329.41;16115452;19;130857;-43
2023/06/10 22:03:27;;;;;;;9.02;5.32;;;;;;;23.73;36.57;101325.75;16118670;19;130271;-43
2023/06/10 22:08:49;;;;;;;10.23;4.90;;;;;;;23.73;36.59;101330.53;16121559;19;129466;-42
2023/06/10 22:14:11;;;;;;;5.32;4.55;;;;;;;23.72;36.47;101334.44;16114961;19;130114;-42
2023/06/10 22:19:38;;;;;;;8.73;4.90;;;;;;;23.70;36.48;101328.25;16113791;19;130824;-43
2023/06/10 22:25:00;;;;;;;6.40;5.20;;;;;;;23.70;36.53;101333.84;16117717;19;129696;-45
2023/06/10 22:30:22;;;;;;;8.65;5.15;;;;;;;23.71;36.67;101330.78;16120241;19;131228;-42
2023/06/10 22:35:44;;;;;;;6.82;5.07;;;;;;;23.71;36.57;101327.16;16117517;19;130309;-42
2023/06/10 22:41:06;;;;;;;9.10;4.90;;;;;;;23.70;36.63;101325.47;16116544;19;129834;-46
2023/06/10 22:46:28;;;;;;;9.43;4.70;;;;;;;23.69;36.68;101326.59;16118036;19;132327;-44
2023/06/10 22:51:50;;;;;;;6.32;5.10;;;;;;;23.68;36.67;101328.56;16116081;19;129716;-44
2023/06/10 22:57:12;;;;;;;6.47;4.63;;;;;;;23.68;36.71;101327.69;16117553;19;132469;-46
2023/06/10 23:02:35;;;;;;;7.13;4.70;;;;;;;23.66;36.61;101328.81;16117937;19;129240;-44
2023/06/10 23:07:58;;;;;;;6.93;4.63;;;;;;;23.66;36.38;101323.22;16120213;19;129996;-45
2023/06/10 23:13:20;;;;;;;8.52;4.95;;;;;;;23.67;36.65;101324.06;16111824;19;130508;-46
2023/06/10 23:18:42;;;;;;;5.32;4.78;;;;;;;23.66;36.67;101323.22;16113943;19;130055;-42
2023/06/10 23:24:04;;;;;;;8.85;4.68;;;;;;;23.65;36.95;101327.13;16105977;19;130140;-43
2023/06/10 23:29:26;;;;;;;7.47;4.85;;;;;;;23.66;37.07;101331.59;16110862;19;131516;-41
2023/06/10 23:34:48;;;;;;;9.63;4.55;;;;;;;23.65;36.77;101327.13;16111559;19;131775;-44
2023/06/10 23:40:11;;;;;;;7.38;4.75;;;;;;;23.65;36.75;101326.28;16104886;19;130018;-46
2023/06/10 23:45:33;;;;;;;6.15;4.65;;;;;;;23.65;36.90;101320.72;16112803;19;129724;-48
2023/06/10 23:50:55;;;;;;;6.40;4.95;;;;;;;23.63;36.60;101320.97;16109894;19;131227;-46
2023/06/10 23:56:17;;;;;;;6.22;4.93;;;;;;;23.64;36.97;101328.22;16114952;19;130376;-47
